Time;durP1;ratioP1;P1;durP2;ratioP2;P2;SDS_P1;SDS_P2;PMS_P1;PMS_P2;Temp;Humidity;BMP_temperature;BMP_pressure;BME280_temperature;BME280_humidity;BME280_pressure;Samples;Min_cycle;Max_cycle;Signal;HPM_P1;HPM_P2
2023/04/27 00:00:28;;;;;;;1.92;1.83;;;;;;;;;;10245907;28;20235;-77
2023/04/27 00:05:29;;;;;;;4.50;1.98;;;;;;;;;;10237810;28;20280;-78
2023/04/27 00:10:31;;;;;;;2.00;1.85;;;;;;;;;;10266558;28;20252;-78
2023/04/27 00:15:32;;;;;;;1.80;1.70;;;;;;;;;;10268089;28;20275;-78
2023/04/27 00:20:33;;;;;;;2.13;2.00;;;;;;;;;;10249451;28;20317;-77
2023/04/27 00:25:34;;;;;;;1.38;1.27;;;;;;;;;;10243906;28;20221;-78
2023/04/27 00:30:35;;;;;;;3.60;1.85;;;;;;;;;;10234508;28;20369;-78
2023/04/27 00:35:36;;;;;;;1.35;1.35;;;;;;;;;;10263443;28;20221;-77
2023/04/27 00:40:38;;;;;;;1.20;1.10;;;;;;;;;;10232200;28;20226;-78
2023/04/27 00:45:42;;;;;;;5.05;1.98;;;;;;;;;;10254166;28;20221;-78
2023/04/27 00:50:43;;;;;;;2.78;1.58;;;;;;;;;;10274871;28;20707;-78
2023/04/27 00:55:44;;;;;;;4.32;1.52;;;;;;;;;;10272304;28;20217;-77
2023/04/27 01:00:45;;;;;;;1.33;1.17;;;;;;;;;;10258130;28;20279;-78
2023/04/27 01:05:46;;;;;;;5.30;1.02;;;;;;;;;;10260739;28;20230;-77
2023/04/27 01:10:48;;;;;;;1.40;0.90;;;;;;;;;;10271378;28;20225;-76
2023/04/27 01:15:49;;;;;;;6.03;1.13;;;;;;;;;;10260620;28;20225;-77
2023/04/27 01:20:50;;;;;;;0.75;0.75;;;;;;;;;;10258717;28;20300;-78
2023/04/27 01:25:51;;;;;;;0.70;0.70;;;;;;;;;;10256260;28;20272;-78
2023/04/27 01:30:55;;;;;;;1.45;0.75;;;;;;;;;;10272561;28;20236;-80
2023/04/27 01:35:56;;;;;;;2.58;0.75;;;;;;;;;;10256936;28;20612;-77
2023/04/27 01:41:03;;;;;;;1.70;0.77;;;;;;;;;;10271988;28;20217;-78
2023/04/27 01:46:05;;;;;;;2.80;1.00;;;;;;;;;;10256066;28;20303;-77
2023/04/27 01:51:06;;;;;;;2.75;0.75;;;;;;;;;;10270141;28;20229;-78
2023/04/27 01:56:09;;;;;;;2.15;0.57;;;;;;;;;;10257376;28;20597;-77
2023/04/27 02:01:10;;;;;;;4.80;1.00;;;;;;;;;;10267563;28;20316;-78
2023/04/27 02:06:11;;;;;;;3.50;1.45;;;;;;;;;;10255795;28;20221;-77
2023/04/27 02:11:13;;;;;;;0.93;0.93;;;;;;;;;;10269613;28;20661;-75
2023/04/27 02:16:14;;;;;;;2.58;1.02;;;;;;;;;;10271906;28;20232;-77
2023/04/27 02:21:15;;;;;;;1.90;1.40;;;;;;;;;;10270545;28;20229;-75
2023/04/27 02:26:21;;;;;;;1.98;1.15;;;;;;;;;;10256290;28;20225;-77
2023/04/27 02:31:22;;;;;;;3.65;1.20;;;;;;;;;;10267956;28;20250;-77
2023/04/27 02:36:23;;;;;;;1.10;1.10;;;;;;;;;;10269497;28;20859;-77
2023/04/27 02:41:26;;;;;;;1.10;0.90;;;;;;;;;;10249995;28;20281;-80
2023/04/27 02:46:27;;;;;;;3.72;1.40;;;;;;;;;;10268476;28;20313;-76
2023/04/27 02:51:28;;;;;;;1.23;1.08;;;;;;;;;;10269318;28;20217;-77
2023/04/27 02:56:29;;;;;;;3.15;1.10;;;;;;;;;;10236836;28;20237;-77
2023/04/27 03:01:30;;;;;;;3.78;1.50;;;;;;;;;;10251437;28;20245;-78
2023/04/27 03:06:31;;;;;;;1.80;1.25;;;;;;;;;;10256580;28;20217;-76
2023/04/27 03:11:32;;;;;;;3.30;1.58;;;;;;;;;;10262642;28;20309;-77
2023/04/27 03:16:34;;;;;;;1.13;1.10;;;;;;;;;;10256471;28;20290;-77
2023/04/27 03:21:35;;;;;;;3.13;1.48;;;;;;;;;;10254968;28;20348;-78
2023/04/27 03:26:36;;;;;;;3.47;1.25;;;;;;;;;;10254579;28;20324;-78
2023/04/27 03:31:38;;;;;;;5.32;1.75;;;;;;;;;;10252842;28;20221;-78
2023/04/27 03:36:39;;;;;;;0.80;0.80;;;;;;;;;;10252054;28;20259;-78
2023/04/27 03:41:43;;;;;;;1.45;1.10;;;;;;;;;;10265524;28;20241;-79
2023/04/27 03:46:44;;;;;;;1.98;1.17;;;;;;;;;;10269756;28;20229;-78
2023/04/27 03:51:46;;;;;;;1.35;1.27;;;;;;;;;;10255902;28;20216;-78
2023/04/27 03:56:49;;;;;;;3.22;1.38;;;;;;;;;;10256001;28;20398;-77
2023/04/27 04:01:50;;;;;;;1.50;1.33;;;;;;;;;;10267994;28;20222;-79
2023/04/27 04:06:51;;;;;;;2.55;1.38;;;;;;;;;;10240161;28;20286;-79
2023/04/27 04:11:52;;;;;;;4.25;1.40;;;;;;;;;;10253794;28;20221;-79
2023/04/27 04:16:54;;;;;;;4.10;1.10;;;;;;;;;;10266743;28;20956;-79
2023/04/27 04:21:56;;;;;;;1.23;1.10;;;;;;;;;;10254983;28;20249;-79
2023/04/27 04:26:58;;;;;;;1.42;1.33;;;;;;;;;;10234999;28;20338;-77
2023/04/27 04:31:59;;;;;;;1.20;1.13;;;;;;;;;;10263700;28;20228;-79
2023/04/27 04:37:00;;;;;;;1.75;1.65;;;;;;;;;;10261612;28;20311;-77
2023/04/27 04:42:04;;;;;;;4.00;1.40;;;;;;;;;;10265443;28;20746;-75
2023/04/27 04:47:08;;;;;;;1.67;1.40;;;;;;;;;;10236376;28;20787;-77
2023/04/27 04:52:09;;;;;;;3.08;1.65;;;;;;;;;;10264190;28;20212;-78
2023/04/27 04:57:10;;;;;;;3.70;1.55;;;;;;;;;;10267962;28;20292;-75
2023/04/27 05:02:11;;;;;;;2.58;1.48;;;;;;;;;;10246464;28;20303;-78
2023/04/27 05:07:12;;;;;;;3.80;2.00;;;;;;;;;;10254807;28;20637;-78
2023/04/27 05:12:13;;;;;;;2.72;1.98;;;;;;;;;;10256210;28;20934;-77
2023/04/27 05:17:14;;;;;;;5.05;2.17;;;;;;;;;;10270954;28;20221;-78
2023/04/27 05:22:15;;;;;;;2.75;2.03;;;;;;;;;;10247914;28;20269;-76
2023/04/27 05:27:16;;;;;;;2.17;1.98;;;;;;;;;;10252857;28;20225;-78
2023/04/27 05:32:17;;;;;;;3.42;2.42;;;;;;;;;;10250626;28;20229;-78
2023/04/27 05:37:18;;;;;;;6.07;2.35;;;;;;;;;;10248005;28;20228;-75
2023/04/27 05:42:20;;;;;;;3.20;2.58;;;;;;;;;;10251559;28;20221;-75
2023/04/27 05:47:21;;;;;;;2.30;2.10;;;;;;;;;;10255831;28;20253;-79
2023/04/27 05:52:28;;;;;;;3.47;2.35;;;;;;;;;;10264354;28;20324;-78
2023/04/27 05:57:29;;;;;;;3.03;1.98;;;;;;;;;;10241959;28;20700;-76
2023/04/27 06:02:30;;;;;;;2.30;1.80;;;;;;;;;;10264313;28;20225;-78
2023/04/27 06:07:31;;;;;;;2.33;1.70;;;;;;;;;;10262499;28;20248;-80
2023/04/27 06:12:32;;;;;;;4.53;2.25;;;;;;;;;;10252842;28;20312;-78
2023/04/27 06:17:37;;;;;;;5.82;2.55;;;;;;;;;;10246328;28;20221;-79
2023/04/27 06:22:38;;;;;;;6.18;2.53;;;;;;;;;;10230637;28;20217;-75
2023/04/27 06:27:40;;;;;;;5.00;2.53;;;;;;;;;;10243601;28;20263;-78
2023/04/27 06:32:41;;;;;;;2.17;1.98;;;;;;;;;;10265605;28;20217;-80
2023/04/27 06:37:43;;;;;;;2.25;2.05;;;;;;;;;;10252846;28;20350;-77
2023/04/27 06:42:44;;;;;;;4.25;2.03;;;;;;;;;;10252317;28;20221;-79
2023/04/27 06:47:45;;;;;;;1.45;1.30;;;;;;;;;;10256065;28;20222;-75
2023/04/27 06:52:46;;;;;;;6.75;2.00;;;;;;;;;;10251356;28;20471;-79
2023/04/27 06:57:47;;;;;;;1.27;1.10;;;;;;;;;;10247710;28;20216;-76
2023/04/27 07:02:49;;;;;;;3.33;1.13;;;;;;;;;;10252863;28;20221;-78
2023/04/27 07:07:50;;;;;;;1.48;1.33;;;;;;;;;;10261997;28;20226;-80
2023/04/27 07:12:51;;;;;;;4.82;1.58;;;;;;;;;;10249683;28;20217;-78
2023/04/27 07:17:55;;;;;;;7.13;1.65;;;;;;;;;;10228728;28;20387;-78
2023/04/27 07:22:56;;;;;;;2.90;1.52;;;;;;;;;;10243236;28;20217;-79
2023/04/27 07:27:58;;;;;;;5.07;2.53;;;;;;;;;;10242113;28;20217;-79
2023/04/27 07:32:59;;;;;;;4.50;1.73;;;;;;;;;;10249438;28;20221;-78
2023/04/27 07:38:01;;;;;;;2.05;1.95;;;;;;;;;;10237975;28;20813;-78
2023/04/27 07:43:02;;;;;;;5.57;2.05;;;;;;;;;;10245570;28;21253;-78
2023/04/27 07:48:04;;;;;;;0.80;0.80;;;;;;;;;;10257682;28;20299;-78
2023/04/27 07:53:05;;;;;;;2.15;1.10;;;;;;;;;;10246519;28;20824;-79
2023/04/27 07:58:06;;;;;;;3.40;0.95;;;;;;;;;;10262238;28;20218;-78
2023/04/27 08:03:07;;;;;;;2.55;0.93;;;;;;;;;;10262786;28;20228;-79
2023/04/27 08:08:09;;;;;;;3.33;1.00;;;;;;;;;;10250144;28;20214;-78
2023/04/27 08:13:10;;;;;;;2.17;0.80;;;;;;;;;;10256232;28;20217;-78
2023/04/27 08:18:11;;;;;;;4.00;0.75;;;;;;;;;;10252228;28;20232;-79
2023/04/27 08:23:12;;;;;;;2.75;0.93;;;;;;;;;;10268773;28;20771;-78
2023/04/27 08:28:13;;;;;;;1.45;0.68;;;;;;;;;;10264500;28;20308;-79
2023/04/27 08:33:14;;;;;;;1.10;0.82;;;;;;;;;;10251887;28;20252;-79
2023/04/27 08:38:15;;;;;;;0.90;0.90;;;;;;;;;;10262583;28;20217;-79
2023/04/27 08:43:16;;;;;;;0.50;0.50;;;;;;;;;;10265207;28;20687;-80
2023/04/27 08:48:19;;;;;;;2.80;0.85;;;;;;;;;;10265123;28;20220;-79
2023/04/27 08:53:21;;;;;;;1.30;0.68;;;;;;;;;;10252585;28;20253;-79
2023/04/27 08:58:22;;;;;;;2.70;0.60;;;;;;;;;;10252829;28;20324;-78
2023/04/27 09:03:24;;;;;;;0.65;0.63;;;;;;;;;;10247806;28;20214;-74
2023/04/27 09:08:25;;;;;;;1.95;0.55;;;;;;;;;;10254554;28;20272;-79
2023/04/27 09:13:34;;;;;;;1.27;0.60;;;;;;;;;;10284333;28;20283;-80
2023/04/27 09:18:36;;;;;;;0.45;0.45;;;;;;;;;;10272963;28;20244;-77
2023/04/27 09:23:40;;;;;;;1.70;0.55;;;;;;;;;;10262750;28;20217;-78
2023/04/27 09:28:47;;;;;;;0.98;0.88;;;;;;;;;;10253735;28;20225;-76
2023/04/27 09:33:53;;;;;;;1.35;0.90;;;;;;;;;;10248849;28;20275;-78
2023/04/27 09:38:55;;;;;;;1.13;0.60;;;;;;;;;;10249913;28;20221;-76
2023/04/27 09:43:56;;;;;;;0.68;0.43;;;;;;;;;;10253271;28;20221;-78
2023/04/27 09:48:57;;;;;;;0.85;0.40;;;;;;;;;;10244039;28;20668;-78
2023/04/27 09:54:00;;;;;;;0.40;0.40;;;;;;;;;;10248752;28;20732;-77
2023/04/27 09:59:10;;;;;;;1.33;0.82;;;;;;;;;;10248181;28;22543;-75
2023/04/27 10:04:32;;;;;;;3.25;0.70;;;;;;;;;;10253632;28;20647;-77
2023/04/27 10:09:37;;;;;;;0.90;0.40;;;;;;;;;;10242872;28;20217;-75
2023/04/27 10:14:47;;;;;;;0.47;0.45;;;;;;;;;;10249085;28;20244;-76
2023/04/27 10:19:59;;;;;;;0.60;0.60;;;;;;;;;;10264225;28;20220;-76
2023/04/27 10:25:00;;;;;;;0.40;0.40;;;;;;;;;;10244547;28;20225;-77
2023/04/27 10:30:08;;;;;;;0.60;0.60;;;;;;;;;;10263742;28;20217;-76
2023/04/27 10:35:09;;;;;;;1.25;0.80;;;;;;;;;;10241223;28;20639;-75
2023/04/27 10:40:16;;;;;;;0.57;0.52;;;;;;;;;;10242746;28;20210;-75
2023/04/27 10:45:26;;;;;;;2.00;0.57;;;;;;;;;;10245144;28;20672;-74
2023/04/27 10:50:28;;;;;;;0.50;0.50;;;;;;;;;;10244087;28;20372;-77
2023/04/27 10:55:32;;;;;;;0.65;0.65;;;;;;;;;;10256828;28;20221;-79
2023/04/27 11:00:33;;;;;;;0.50;0.50;;;;;;;;;;10261508;28;20240;-75
2023/04/27 11:05:35;;;;;;;1.50;0.57;;;;;;;;;;10249618;28;20224;-75
2023/04/27 11:10:40;;;;;;;0.95;0.40;;;;;;;;;;10260686;28;20287;-77
2023/04/27 11:15:42;;;;;;;0.73;0.50;;;;;;;;;;10243140;28;21111;-74
2023/04/27 11:20:44;;;;;;;0.50;0.40;;;;;;;;;;10242342;28;20292;-75
2023/04/27 11:25:45;;;;;;;0.50;0.50;;;;;;;;;;10239961;28;20236;-75
2023/04/27 11:30:46;;;;;;;0.60;0.60;;;;;;;;;;10246891;28;20765;-77
2023/04/27 11:35:47;;;;;;;1.40;0.60;;;;;;;;;;10256854;28;20707;-76
2023/04/27 11:41:00;;;;;;;0.90;0.50;;;;;;;;;;10242915;28;20230;-75
2023/04/27 11:46:05;;;;;;;0.80;0.80;;;;;;;;;;10246421;28;20213;-75
2023/04/27 11:51:07;;;;;;;0.82;0.70;;;;;;;;;;10259359;28;20224;-74
2023/04/27 11:56:09;;;;;;;1.05;0.70;;;;;;;;;;10242086;28;20221;-75
2023/04/27 12:01:11;;;;;;;1.98;1.10;;;;;;;;;;10244907;28;20225;-76
2023/04/27 12:06:12;;;;;;;1.17;0.73;;;;;;;;;;10243827;28;20290;-76
2023/04/27 12:11:13;;;;;;;0.75;0.55;;;;;;;;;;10248223;28;20308;-76
2023/04/27 12:16:15;;;;;;;1.20;0.50;;;;;;;;;;10242199;28;20304;-76
2023/04/27 12:21:16;;;;;;;1.25;0.60;;;;;;;;;;10237227;28;20244;-76
2023/04/27 12:26:17;;;;;;;0.50;0.45;;;;;;;;;;10256865;28;20225;-73
2023/04/27 12:31:23;;;;;;;0.65;0.45;;;;;;;;;;10237572;28;20257;-73
2023/04/27 12:36:26;;;;;;;0.50;0.47;;;;;;;;;;10242112;28;20775;-75
2023/04/27 12:41:27;;;;;;;2.20;0.60;;;;;;;;;;10241196;28;20616;-76
2023/04/27 12:46:28;;;;;;;0.80;0.50;;;;;;;;;;10252744;28;20222;-77
2023/04/27 12:51:29;;;;;;;4.38;0.90;;;;;;;;;;10243984;28;20218;-75
2023/04/27 12:56:30;;;;;;;0.88;0.60;;;;;;;;;;10253114;28;20254;-75
2023/04/27 13:01:31;;;;;;;0.80;0.80;;;;;;;;;;10245986;28;20276;-75
2023/04/27 13:06:32;;;;;;;1.80;0.50;;;;;;;;;;10250594;28;20710;-75
2023/04/27 13:11:33;;;;;;;1.45;0.50;;;;;;;;;;10247930;28;20598;-76
2023/04/27 13:16:34;;;;;;;3.38;0.57;;;;;;;;;;10231533;28;20252;-76
2023/04/27 13:21:35;;;;;;;0.80;0.60;;;;;;;;;;10249053;28;20244;-78
2023/04/27 13:26:36;;;;;;;0.50;0.50;;;;;;;;;;10248095;28;20218;-76
2023/04/27 13:31:37;;;;;;;0.50;0.50;;;;;;;;;;10248335;28;20221;-75
2023/04/27 13:36:38;;;;;;;0.40;0.40;;;;;;;;;;10251188;28;20217;-76
2023/04/27 13:41:39;;;;;;;1.23;1.13;;;;;;;;;;10253230;28;20214;-74
2023/04/27 13:46:40;;;;;;;1.90;0.50;;;;;;;;;;10270619;28;20277;-71
2023/04/27 13:51:42;;;;;;;0.80;0.65;;;;;;;;;;10254020;28;20226;-77
2023/04/27 13:56:43;;;;;;;0.52;0.52;;;;;;;;;;10248394;28;20764;-75
2023/04/27 14:01:44;;;;;;;0.43;0.43;;;;;;;;;;10250282;28;20287;-78
2023/04/27 14:06:45;;;;;;;0.75;0.50;;;;;;;;;;10248557;28;20214;-79
2023/04/27 14:11:46;;;;;;;2.53;0.60;;;;;;;;;;10244576;28;20229;-76
2023/04/27 14:16:47;;;;;;;2.05;0.43;;;;;;;;;;10252979;28;20232;-78
2023/04/27 14:21:49;;;;;;;0.50;0.50;;;;;;;;;;10247304;28;20332;-80
2023/04/27 14:26:50;;;;;;;1.30;0.50;;;;;;;;;;10241934;28;20575;-81
2023/04/27 14:31:54;;;;;;;1.00;0.50;;;;;;;;;;10245465;28;20232;-77
2023/04/27 14:36:56;;;;;;;0.52;0.50;;;;;;;;;;10272444;28;20745;-77
2023/04/27 14:41:57;;;;;;;1.25;0.38;;;;;;;;;;10249408;28;20220;-81
2023/04/27 14:46:58;;;;;;;0.43;0.43;;;;;;;;;;10244585;28;20253;-77
2023/04/27 14:52:02;;;;;;;1.55;0.32;;;;;;;;;;10249568;28;20219;-79
2023/04/27 14:57:04;;;;;;;0.73;0.50;;;;;;;;;;10235204;28;20225;-79
2023/04/27 15:02:06;;;;;;;0.57;0.57;;;;;;;;;;10254080;28;20232;-80
2023/04/27 15:07:08;;;;;;;12.82;0.57;;;;;;;;;;10235560;28;20225;-79
2023/04/27 15:12:10;;;;;;;0.40;0.40;;;;;;;;;;10258397;28;20213;-78
2023/04/27 15:17:12;;;;;;;2.90;0.60;;;;;;;;;;10270156;28;20308;-79
2023/04/27 15:22:13;;;;;;;0.30;0.30;;;;;;;;;;10254085;28;20683;-78
2023/04/27 15:27:14;;;;;;;0.70;0.40;;;;;;;;;;10246873;28;20214;-77
2023/04/27 15:32:15;;;;;;;1.13;0.70;;;;;;;;;;10242945;28;20217;-79
2023/04/27 15:37:16;;;;;;;0.30;0.30;;;;;;;;;;10242124;28;20214;-78
2023/04/27 15:42:17;;;;;;;2.95;0.57;;;;;;;;;;10250451;28;20217;-79
2023/04/27 15:47:18;;;;;;;0.52;0.40;;;;;;;;;;10259481;28;20229;-75
2023/04/27 15:52:19;;;;;;;0.40;0.40;;;;;;;;;;10252666;28;20222;-75
2023/04/27 15:57:21;;;;;;;0.65;0.52;;;;;;;;;;10224935;28;20836;-77
2023/04/27 16:02:22;;;;;;;1.92;0.50;;;;;;;;;;10250812;28;20256;-80
2023/04/27 16:07:23;;;;;;;1.65;0.40;;;;;;;;;;10245368;28;20401;-78
2023/04/27 16:12:24;;;;;;;2.97;0.50;;;;;;;;;;10233588;28;20300;-77
2023/04/27 16:17:32;;;;;;;1.98;0.50;;;;;;;;;;10241224;28;20240;-77
2023/04/27 16:22:33;;;;;;;1.08;0.40;;;;;;;;;;10265830;28;20275;-78
2023/04/27 16:27:34;;;;;;;1.48;0.40;;;;;;;;;;10276577;28;20683;-79
2023/04/27 16:32:36;;;;;;;0.93;0.47;;;;;;;;;;10276647;28;20209;-79
2023/04/27 16:37:37;;;;;;;4.70;0.50;;;;;;;;;;10268081;28;20217;-79
2023/04/27 16:42:38;;;;;;;0.85;0.47;;;;;;;;;;10265420;28;20783;-76
2023/04/27 16:47:40;;;;;;;0.60;0.35;;;;;;;;;;10247213;28;20312;-78
2023/04/27 16:52:41;;;;;;;1.02;0.50;;;;;;;;;;10250620;28;20225;-78
2023/04/27 16:57:42;;;;;;;0.40;0.40;;;;;;;;;;10263718;28;20308;-78
2023/04/27 17:02:43;;;;;;;9.07;0.63;;;;;;;;;;10248431;28;20217;-79
2023/04/27 17:07:45;;;;;;;0.40;0.40;;;;;;;;;;10233678;28;20225;-76
2023/04/27 17:12:46;;;;;;;0.80;0.50;;;;;;;;;;10259284;28;20229;-77
2023/04/27 17:17:47;;;;;;;0.40;0.35;;;;;;;;;;10253260;28;20253;-78
2023/04/27 17:22:48;;;;;;;0.47;0.47;;;;;;;;;;10266734;28;20240;-78
2023/04/27 17:27:49;;;;;;;0.82;0.45;;;;;;;;;;10257740;28;20222;-77
2023/04/27 17:32:50;;;;;;;2.05;0.50;;;;;;;;;;10252714;28;20865;-77
2023/04/27 17:37:52;;;;;;;0.88;0.40;;;;;;;;;;10231239;28;20273;-76
2023/04/27 17:42:55;;;;;;;0.30;0.28;;;;;;;;;;10265952;28;20240;-77
2023/04/27 17:47:56;;;;;;;4.68;0.70;;;;;;;;;;10253107;28;20221;-79
2023/04/27 17:52:57;;;;;;;2.42;0.50;;;;;;;;;;10246642;28;20296;-78
2023/04/27 17:57:58;;;;;;;1.23;0.47;;;;;;;;;;10227198;28;20225;-77
2023/04/27 18:02:59;;;;;;;0.85;0.40;;;;;;;;;;10244824;28;20225;-78
2023/04/27 18:08:00;;;;;;;0.65;0.40;;;;;;;;;;10234534;28;20228;-78
2023/04/27 18:13:02;;;;;;;0.43;0.40;;;;;;;;;;10240487;28;20231;-78
2023/04/27 18:18:03;;;;;;;1.17;0.65;;;;;;;;;;10232100;28;20691;-79
2023/04/27 18:23:04;;;;;;;0.90;0.90;;;;;;;;;;10242373;28;20364;-79
2023/04/27 18:28:05;;;;;;;0.93;0.60;;;;;;;;;;10225796;28;20221;-78
2023/04/27 18:33:06;;;;;;;2.75;1.08;;;;;;;;;;10232268;28;20217;-77
2023/04/27 18:38:07;;;;;;;0.95;0.95;;;;;;;;;;10244812;28;20246;-78
2023/04/27 18:43:08;;;;;;;0.70;0.70;;;;;;;;;;10240469;28;20736;-78
2023/04/27 18:48:09;;;;;;;13.32;6.43;;;;;;;;;;10243909;28;20236;-76
2023/04/27 18:53:10;;;;;;;7.78;4.13;;;;;;;;;;10252632;28;20227;-77
2023/04/27 18:58:11;;;;;;;5.88;2.75;;;;;;;;;;10235381;28;20230;-77
2023/04/27 19:03:12;;;;;;;2.45;2.10;;;;;;;;;;10237962;28;20229;-77
2023/04/27 19:08:13;;;;;;;1.55;1.55;;;;;;;;;;10247543;28;20272;-77
2023/04/27 19:13:14;;;;;;;3.35;1.50;;;;;;;;;;10243939;28;20233;-77
2023/04/27 19:18:15;;;;;;;1.00;1.00;;;;;;;;;;10263020;28;21096;-78
2023/04/27 19:23:18;;;;;;;2.97;1.40;;;;;;;;;;10245383;28;20221;-77
2023/04/27 19:28:19;;;;;;;1.27;1.05;;;;;;;;;;10261969;28;20222;-77
2023/04/27 19:33:21;;;;;;;1.77;1.50;;;;;;;;;;10254986;28;20594;-77
2023/04/27 19:38:24;;;;;;;3.25;1.35;;;;;;;;;;10247158;28;20273;-75
2023/04/27 19:43:25;;;;;;;2.97;2.13;;;;;;;;;;10259900;28;20213;-77
2023/04/27 19:48:26;;;;;;;3.47;2.20;;;;;;;;;;10258218;28;20221;-76
2023/04/27 19:53:28;;;;;;;3.47;2.47;;;;;;;;;;10246673;28;20283;-78
2023/04/27 19:58:29;;;;;;;5.13;2.00;;;;;;;;;;10230704;28;20237;-77
2023/04/27 20:03:30;;;;;;;2.05;1.75;;;;;;;;;;10258507;28;20222;-74
2023/04/27 20:08:32;;;;;;;3.40;1.63;;;;;;;;;;10262120;28;20225;-77
2023/04/27 20:13:33;;;;;;;3.35;1.15;;;;;;;;;;10262423;28;20345;-78
2023/04/27 20:18:36;;;;;;;1.95;1.00;;;;;;;;;;10270511;28;20222;-77
2023/04/27 20:23:37;;;;;;;1.10;0.73;;;;;;;;;;10274846;28;20778;-77
2023/04/27 20:28:38;;;;;;;1.58;0.85;;;;;;;;;;10277128;28;20217;-75
2023/04/27 20:33:39;;;;;;;0.90;0.90;;;;;;;;;;10262223;28;20217;-75
2023/04/27 20:38:40;;;;;;;0.63;0.63;;;;;;;;;;10264985;28;20267;-75
2023/04/27 20:43:43;;;;;;;1.75;0.60;;;;;;;;;;10271425;28;20249;-74
2023/04/27 20:48:47;;;;;;;0.52;0.52;;;;;;;;;;10259057;28;20257;-72
2023/04/27 20:53:48;;;;;;;0.93;0.63;;;;;;;;;;10269740;28;20272;-76
2023/04/27 20:58:49;;;;;;;1.65;0.60;;;;;;;;;;10272487;28;20292;-77
2023/04/27 21:03:51;;;;;;;2.13;0.90;;;;;;;;;;10269365;28;20229;-76
2023/04/27 21:08:52;;;;;;;0.82;0.80;;;;;;;;;;10264835;28;20312;-72
2023/04/27 21:13:53;;;;;;;0.68;0.68;;;;;;;;;;10238519;28;20213;-75
2023/04/27 21:18:54;;;;;;;3.80;1.15;;;;;;;;;;10248057;28;20222;-74
2023/04/27 21:23:55;;;;;;;0.68;0.68;;;;;;;;;;10253018;28;20221;-75
2023/04/27 21:28:56;;;;;;;0.70;0.70;;;;;;;;;;10257811;28;20775;-76
2023/04/27 21:33:57;;;;;;;1.40;0.68;;;;;;;;;;10256774;28;20883;-76
2023/04/27 21:38:58;;;;;;;1.13;0.77;;;;;;;;;;10254475;28;20224;-76
2023/04/27 21:43:59;;;;;;;0.55;0.55;;;;;;;;;;10256531;28;20230;-75
2023/04/27 21:49:01;;;;;;;1.27;0.75;;;;;;;;;;10260177;28;20221;-72
2023/04/27 21:54:02;;;;;;;1.67;0.82;;;;;;;;;;10246836;28;20221;-76
2023/04/27 21:59:03;;;;;;;0.73;0.60;;;;;;;;;;10249298;28;20232;-77
2023/04/27 22:04:05;;;;;;;2.17;0.60;;;;;;;;;;10245813;28;20752;-74
2023/04/27 22:09:06;;;;;;;1.40;0.70;;;;;;;;;;10246076;28;20560;-76
2023/04/27 22:14:07;;;;;;;2.30;0.95;;;;;;;;;;10262152;28;20218;-76
2023/04/27 22:19:08;;;;;;;2.42;1.17;;;;;;;;;;10252435;28;20233;-75
2023/04/27 22:24:09;;;;;;;2.10;0.82;;;;;;;;;;10267440;28;20905;-75
2023/04/27 22:29:10;;;;;;;0.95;0.88;;;;;;;;;;10239196;28;20217;-76
2023/04/27 22:34:12;;;;;;;0.82;0.82;;;;;;;;;;10252586;28;20217;-75
2023/04/27 22:39:13;;;;;;;1.33;1.05;;;;;;;;;;10251740;28;20229;-76
2023/04/27 22:44:14;;;;;;;0.70;0.70;;;;;;;;;;10253456;28;20243;-74
2023/04/27 22:49:16;;;;;;;0.65;0.65;;;;;;;;;;10266436;28;20280;-75
2023/04/27 22:54:17;;;;;;;1.50;0.82;;;;;;;;;;10249954;28;20311;-74
2023/04/27 22:59:21;;;;;;;0.60;0.60;;;;;;;;;;10250011;28;20290;-72
2023/04/27 23:04:25;;;;;;;0.88;0.88;;;;;;;;;;10248519;28;20233;-75
2023/04/27 23:09:26;;;;;;;1.83;0.90;;;;;;;;;;10249227;28;21007;-74
2023/04/27 23:14:28;;;;;;;0.82;0.82;;;;;;;;;;10254279;28;20217;-75
2023/04/27 23:19:29;;;;;;;2.83;0.90;;;;;;;;;;10251773;28;20312;-74
2023/04/27 23:24:30;;;;;;;0.60;0.60;;;;;;;;;;10235889;28;20264;-76
2023/04/27 23:29:31;;;;;;;0.95;0.95;;;;;;;;;;10270280;28;20739;-73
2023/04/27 23:34:32;;;;;;;1.60;0.77;;;;;;;;;;10257941;28;20218;-75
2023/04/27 23:39:34;;;;;;;1.88;0.80;;;;;;;;;;10241665;28;20221;-74
2023/04/27 23:44:35;;;;;;;0.88;0.88;;;;;;;;;;10247807;28;20224;-76
2023/04/27 23:49:36;;;;;;;0.95;0.77;;;;;;;;;;10245698;28;20227;-76
2023/04/27 23:54:37;;;;;;;2.67;0.95;;;;;;;;;;10246420;28;20216;-75
2023/04/27 23:59:38;;;;;;;4.20;0.80;;;;;;;;;;10267740;28;20249;-75
